createdAt,value
2023-03-26T05:04:57.112Z,97174.66
2023-03-26T05:07:47.991Z,97200.78
2023-03-26T05:10:37.781Z,97193.13
2023-03-26T05:13:10.454Z,97187.13
2023-03-26T05:15:40.965Z,97170.91
2023-03-26T05:18:23.739Z,97184.56
2023-03-26T05:20:53.882Z,97178.25
2023-03-26T05:23:20.931Z,97166.84
2023-03-26T05:25:53.654Z,97172.41
2023-03-26T05:28:25.407Z,97163.22
2023-03-26T05:31:02.684Z,97165.56
2023-03-26T05:33:34.571Z,97152.03
2023-03-26T05:36:15.843Z,97154.50
2023-03-26T05:38:49.333Z,97152.34
2023-03-26T05:41:38.670Z,97147.19
2023-03-26T05:44:05.475Z,97153.56
2023-03-26T05:46:32.274Z,97136.00
2023-03-26T05:49:00.262Z,97136.72
2023-03-26T05:51:30.948Z,97132.25
2023-03-26T05:54:12.983Z,97141.06
2023-03-26T05:57:18.669Z,97123.06
2023-03-26T06:00:18.446Z,97109.13
2023-03-26T06:02:46.653Z,97120.00
2023-03-26T06:05:42.981Z,97102.34
2023-03-26T06:08:37.678Z,97096.00
2023-03-26T06:11:07.886Z,97086.00
2023-03-26T06:13:39.433Z,97092.47
2023-03-26T06:16:07.557Z,97092.56
2023-03-26T06:18:37.144Z,97091.78
2023-03-26T06:21:22.624Z,97108.50
2023-03-26T06:24:00.333Z,97084.41
2023-03-26T06:26:36.251Z,97113.00
2023-03-26T06:29:16.946Z,97117.75
2023-03-26T06:32:19.159Z,97110.41
2023-03-26T06:35:01.550Z,97094.94
2023-03-26T06:37:28.143Z,97097.50
2023-03-26T06:39:59.780Z,97119.25
2023-03-26T06:43:08.625Z,97099.50
2023-03-26T06:46:09.810Z,97132.19
2023-03-26T06:48:55.053Z,97109.44
2023-03-26T06:51:27.530Z,97139.25
2023-03-26T06:54:13.385Z,97134.81
2023-03-26T06:57:01.505Z,97134.06
2023-03-26T06:59:36.731Z,97149.44
2023-03-26T07:02:21.734Z,97106.09
2023-03-26T07:05:08.120Z,97094.97
2023-03-26T07:08:13.791Z,97091.13
2023-03-26T07:10:58.597Z,97141.34
2023-03-26T07:13:44.918Z,97129.63
2023-03-26T07:16:33.152Z,97130.50
2023-03-26T07:19:18.758Z,97111.16
2023-03-26T07:21:46.732Z,97108.84
2023-03-26T07:24:43.340Z,97084.91
2023-03-26T07:27:37.750Z,97094.88
2023-03-26T07:30:24.441Z,97106.63
2023-03-26T07:33:34.853Z,97098.59
2023-03-26T07:36:43.525Z,97087.69
2023-03-26T07:39:40.936Z,97087.97
2023-03-26T07:42:57.946Z,97052.25
2023-03-26T07:45:47.519Z,97043.00
2023-03-26T07:48:43.098Z,97035.59
2023-03-26T07:51:28.889Z,97048.88
2023-03-26T07:54:31.045Z,97017.69
2023-03-26T07:58:21.119Z,97026.91
2023-03-26T08:01:18.020Z,97013.25
2023-03-26T08:03:53.812Z,97026.72
2023-03-26T08:06:53.058Z,97022.38
2023-03-26T08:10:16.142Z,97002.81
2023-03-26T08:13:16.113Z,96975.78
2023-03-26T08:15:53.957Z,96983.84
2023-03-26T08:18:45.461Z,96987.94
2023-03-26T08:21:18.314Z,96957.56
2023-03-26T08:23:55.563Z,96947.81
2023-03-26T08:26:41.408Z,96951.16
2023-03-26T08:29:13.866Z,96942.44
2023-03-26T08:31:43.577Z,96956.22
2023-03-26T08:34:12.022Z,96921.66
2023-03-26T08:36:39.126Z,96920.75
2023-03-26T08:39:05.970Z,96926.19
2023-03-26T08:41:47.948Z,96908.66
2023-03-26T08:44:48.889Z,96893.97
2023-03-26T08:47:31.268Z,96908.22
2023-03-26T08:50:31.896Z,96903.38
2023-03-26T08:53:29.134Z,96904.00
2023-03-26T08:56:16.771Z,96905.72
2023-03-26T08:58:57.368Z,96895.66
2023-03-26T09:01:56.429Z,96889.81
2023-03-26T09:04:38.212Z,96895.09
2023-03-26T09:07:41.572Z,96902.81
2023-03-26T09:10:15.724Z,96886.84
2023-03-26T09:13:10.648Z,96879.88
2023-03-26T09:15:46.919Z,96898.94
2023-03-26T09:18:25.681Z,96913.91
2023-03-26T09:21:29.867Z,96913.06
2023-03-26T09:24:10.818Z,96908.06
2023-03-26T09:27:04.298Z,96916.53
2023-03-26T09:29:32.828Z,96915.69
